Terminal Aerodrome Forecast
Issued by NWS

Home | Current Version | Previous Version | Graphics & Text | Print | Product List | Glossary On
Versions: 1 2 3 4 5 6 7 8 9 10 11 12 13
000
FTUS43 KABR 071100
TAFATY
TAF
KATY 071130Z 0712/0812 29005KT P6SM SCT150
     FM071900 30012G20KT P6SM SCT040 BKN120
     FM080400 31006KT P6SM SKC=

USA.gov is the U.S. government's official web portal to all federal, state and local government web resources and services.